Time,TemperatureF,DewpointF,PressureIn,WindDirection,WindDirectionDegrees,WindSpeedMPH,WindSpeedGustMPH,Humidity,HourlyPrecipIn,Conditions,Clouds,dailyrainin,SoftwareType,DateUTC
2013-08-06 00:02:00,84.0,-99.9,-100.00,South,177,7.0,12.0,-999,-99.99,,,-99.99,,2013-08-06 07:02:00,
2013-08-06 00:12:00,84.0,-99.9,-100.00,South,177,7.0,12.0,-999,-99.99,,,-99.99,,2013-08-06 07:12:00,
2013-08-06 00:32:00,84.0,-99.9,-100.00,South,184,3.0,10.0,-999,-99.99,,,-99.99,,2013-08-06 07:32:00,
2013-08-06 00:44:00,83.0,-99.9,-100.00,SSW,197,2.0,8.0,-999,-99.99,,,-99.99,,2013-08-06 07:44:00,
2013-08-06 00:53:00,83.0,-99.9,-100.00,South,186,8.0,12.0,-999,-99.99,,,-99.99,,2013-08-06 07:53:00,
2013-08-06 01:00:00,83.0,-99.9,-100.00,South,186,5.0,8.0,-999,-99.99,,,-99.99,,2013-08-06 08:00:00,
2013-08-06 01:02:00,83.0,-99.9,-100.00,SSW,207,8.0,10.0,-999,-99.99,,,-99.99,,2013-08-06 08:02:00,
2013-08-06 01:11:00,83.0,-99.9,-100.00,SSW,207,8.0,10.0,-999,-99.99,,,-99.99,,2013-08-06 08:11:00,
2013-08-06 01:22:00,83.0,-99.9,-100.00,SSW,207,8.0,10.0,-999,-99.99,,,-99.99,,2013-08-06 08:22:00,
2013-08-06 01:43:00,83.0,-99.9,-100.00,South,186,5.0,8.0,-999,-99.99,,,-99.99,,2013-08-06 08:43:00,
2013-08-06 01:52:00,83.0,-99.9,-100.00,South,186,5.0,8.0,-999,-99.99,,,-99.99,,2013-08-06 08:52:00,
2013-08-06 03:53:00,80.0,-99.9,-100.00,SSW,202,9.0,12.0,-999,-99.99,,,-99.99,,2013-08-06 10:53:00,
2013-08-06 04:02:00,80.0,-99.9,-100.00,SSW,202,9.0,12.0,-999,-99.99,,,-99.99,,2013-08-06 11:02:00,
2013-08-06 04:10:00,80.0,-99.9,-100.00,SW,217,3.0,4.0,-999,-99.99,,,-99.99,,2013-08-06 11:10:00,
2013-08-06 04:11:00,80.0,-99.9,-100.00,SSW,199,3.0,8.0,-999,-99.99,,,-99.99,,2013-08-06 11:11:00,
2013-08-06 04:22:00,80.0,-99.9,-100.00,SSW,199,3.0,8.0,-999,-99.99,,,-99.99,,2013-08-06 11:22:00,
2013-08-06 04:53:00,80.0,-99.9,-100.00,SW,217,3.0,4.0,-999,-99.99,,,-99.99,,2013-08-06 11:53:00,
2013-08-06 05:02:00,80.0,-99.9,-100.00,SW,217,3.0,4.0,-999,-99.99,,,-99.99,,2013-08-06 12:02:00,
2013-08-06 05:20:00,78.0,-99.9,-100.00,SSW,198,4.0,5.0,-999,-99.99,,,-99.99,,2013-08-06 12:20:00,
2013-08-06 05:52:00,79.0,-99.9,-100.00,North,9,5.0,5.0,-999,-99.99,,,-99.99,,2013-08-06 12:52:00,
2013-08-06 06:02:00,78.0,-99.9,-100.00,SSW,198,4.0,5.0,-999,-99.99,,,-99.99,,2013-08-06 13:02:00,
2013-08-06 06:11:00,78.0,-99.9,-100.00,SSW,198,4.0,5.0,-999,-99.99,,,-99.99,,2013-08-06 13:11:00,
2013-08-06 07:53:00,79.0,-99.9,-100.00,SSW,203,9.0,10.0,-999,-99.99,,,-99.99,,2013-08-06 14:53:00,
2013-08-06 08:02:00,79.0,-99.9,-100.00,SSW,203,9.0,10.0,-999,-99.99,,,-99.99,,2013-08-06 15:02:00,
2013-08-06 08:52:00,80.0,-99.9,-100.00,South,181,7.0,11.0,-999,-99.99,,,-99.99,,2013-08-06 15:52:00,
2013-08-06 09:11:00,81.0,-99.9,-100.00,South,173,6.0,12.0,-999,-99.99,,,-99.99,,2013-08-06 16:11:00,
2013-08-06 09:22:00,81.0,-99.9,-100.00,South,173,6.0,12.0,-999,-99.99,,,-99.99,,2013-08-06 16:22:00,
2013-08-06 10:10:00,87.0,-99.9,-100.00,SSW,200,12.0,16.0,-999,-99.99,,,-99.99,,2013-08-06 17:10:00,
2013-08-06 10:52:00,87.0,-99.9,-100.00,SSW,200,12.0,16.0,-999,-99.99,,,-99.99,,2013-08-06 17:52:00,
2013-08-06 11:02:00,87.0,-99.9,-100.00,SSW,200,12.0,16.0,-999,-99.99,,,-99.99,,2013-08-06 18:02:00,
2013-08-06 12:10:00,93.0,-99.9,-100.00,WSW,241,6.0,17.0,-999,-99.99,,,-99.99,,2013-08-06 19:10:00,
2013-08-06 12:11:00,92.0,-99.9,-100.00,SW,226,16.0,18.0,-999,-99.99,,,-99.99,,2013-08-06 19:11:00,
2013-08-06 12:22:00,92.0,-99.9,-100.00,SW,226,16.0,18.0,-999,-99.99,,,-99.99,,2013-08-06 19:22:00,
2013-08-06 12:42:00,93.0,-99.9,-100.00,WSW,239,12.0,18.0,-999,-99.99,,,-99.99,,2013-08-06 19:42:00,
2013-08-06 12:52:00,93.0,-99.9,-100.00,WSW,241,6.0,17.0,-999,-99.99,,,-99.99,,2013-08-06 19:52:00,
2013-08-06 13:02:00,93.0,-99.9,-100.00,WSW,241,6.0,17.0,-999,-99.99,,,-99.99,,2013-08-06 20:02:00,
2013-08-06 13:52:00,96.0,-99.9,-100.00,WSW,255,16.0,20.0,-999,-99.99,,,-99.99,,2013-08-06 20:52:00,
2013-08-06 14:02:00,96.0,-99.9,-100.00,WSW,255,16.0,20.0,-999,-99.99,,,-99.99,,2013-08-06 21:02:00,
2013-08-06 15:12:00,97.0,-99.9,-100.00,WSW,244,15.0,18.0,-999,-99.99,,,-99.99,,2013-08-06 22:12:00,
2013-08-06 15:22:00,97.0,-99.9,-100.00,SSW,207,11.0,17.0,-999,-99.99,,,-99.99,,2013-08-06 22:22:00,
2013-08-06 15:43:00,98.0,-99.9,-100.00,SW,236,8.0,17.0,-999,-99.99,,,-99.99,,2013-08-06 22:43:00,
2013-08-06 15:53:00,98.0,-99.9,-100.00,SW,236,8.0,17.0,-999,-99.99,,,-99.99,,2013-08-06 22:53:00,
2013-08-06 16:22:00,98.0,-99.9,-100.00,West,280,10.0,13.0,-999,-99.99,,,-99.99,,2013-08-06 23:22:00,
2013-08-06 16:33:00,97.0,-99.9,-100.00,West,261,12.0,17.0,-999,-99.99,,,-99.99,,2013-08-06 23:33:00,
2013-08-06 16:43:00,97.0,-99.9,-100.00,West,261,12.0,17.0,-999,-99.99,,,-99.99,,2013-08-06 23:43:00,
2013-08-06 16:52:00,97.0,-99.9,-100.00,West,261,12.0,17.0,-999,-99.99,,,-99.99,,2013-08-06 23:52:00,
2013-08-06 17:00:00,97.0,-99.9,-100.00,West,266,11.0,16.0,-999,-99.99,,,-99.99,,2013-08-07 00:00:00,
2013-08-06 17:32:00,97.0,-99.9,-100.00,SW,232,12.0,16.0,-999,-99.99,,,-99.99,,2013-08-07 00:32:00,
2013-08-06 17:43:00,97.0,-99.9,-100.00,West,266,11.0,16.0,-999,-99.99,,,-99.99,,2013-08-07 00:43:00,
2013-08-06 17:52:00,97.0,-99.9,-100.00,West,266,11.0,16.0,-999,-99.99,,,-99.99,,2013-08-07 00:52:00,
2013-08-06 18:40:00,93.0,-99.9,-100.00,WSW,251,16.0,20.0,-999,-99.99,,,-99.99,,2013-08-07 01:40:00,
2013-08-06 18:53:00,95.0,-99.9,-100.00,West,265,13.0,16.0,-999,-99.99,,,-99.99,,2013-08-07 01:53:00,
2013-08-06 19:00:00,91.0,-99.9,-100.00,WSW,252,16.0,19.0,-999,-99.99,,,-99.99,,2013-08-07 02:00:00,
2013-08-06 19:33:00,93.0,-99.9,-100.00,WSW,251,16.0,20.0,-999,-99.99,,,-99.99,,2013-08-07 02:33:00,
2013-08-06 20:12:00,91.0,-99.9,-100.00,WSW,245,19.0,21.0,-999,-99.99,,,-99.99,,2013-08-07 03:12:00,
2013-08-06 20:23:00,90.0,-99.9,-100.00,SW,234,17.0,19.0,-999,-99.99,,,-99.99,,2013-08-07 03:23:00,
2013-08-06 20:32:00,90.0,-99.9,-100.00,SW,234,17.0,19.0,-999,-99.99,,,-99.99,,2013-08-07 03:32:00,
2013-08-06 21:10:00,86.0,-99.9,-100.00,SW,228,10.0,11.0,-999,-99.99,,,-99.99,,2013-08-07 04:10:00,
2013-08-06 21:33:00,87.0,-99.9,-100.00,WSW,239,10.0,14.0,-999,-99.99,,,-99.99,,2013-08-07 04:33:00,
2013-08-06 21:43:00,87.0,-99.9,-100.00,WSW,239,10.0,14.0,-999,-99.99,,,-99.99,,2013-08-07 04:43:00,
2013-08-06 21:52:00,86.0,-99.9,-100.00,SW,228,10.0,11.0,-999,-99.99,,,-99.99,,2013-08-07 04:52:00,
2013-08-06 22:02:00,86.0,-99.9,-100.00,SW,228,10.0,11.0,-999,-99.99,,,-99.99,,2013-08-07 05:02:00,
2013-08-06 22:10:00,85.0,-99.9,-100.00,SW,225,5.0,8.0,-999,-99.99,,,-99.99,,2013-08-07 05:10:00,
2013-08-06 22:43:00,85.0,-99.9,-100.00,WSW,238,8.0,10.0,-999,-99.99,,,-99.99,,2013-08-07 05:43:00,
2013-08-06 22:52:00,85.0,-99.9,-100.00,SW,225,5.0,8.0,-999,-99.99,,,-99.99,,2013-08-07 05:52:00,
2013-08-06 23:02:00,85.0,-99.9,-100.00,SW,225,5.0,8.0,-999,-99.99,,,-99.99,,2013-08-07 06:02:00,